sensor_id;sensor_type;location;lat;lon;timestamp;P1;durP1;ratioP1;P2;durP2;ratioP2
50789;SDS011;37287;47.554;7.844;2024-03-06T00:01:09;1.98;;;1.33;;
50789;SDS011;37287;47.554;7.844;2024-03-06T00:03:35;2.28;;;1.20;;
50789;SDS011;37287;47.554;7.844;2024-03-06T00:06:02;1.33;;;1.10;;
50789;SDS011;37287;47.554;7.844;2024-03-06T00:08:29;2.30;;;1.27;;
50789;SDS011;37287;47.554;7.844;2024-03-06T00:10:56;3.45;;;1.25;;
50789;SDS011;37287;47.554;7.844;2024-03-06T00:13:23;2.85;;;1.05;;
50789;SDS011;37287;47.554;7.844;2024-03-06T00:15:50;2.25;;;1.48;;
50789;SDS011;37287;47.554;7.844;2024-03-06T00:18:16;2.25;;;1.33;;
50789;SDS011;37287;47.554;7.844;2024-03-06T00:20:43;2.20;;;1.25;;
50789;SDS011;37287;47.554;7.844;2024-03-06T00:23:11;5.38;;;1.50;;
50789;SDS011;37287;47.554;7.844;2024-03-06T00:25:37;2.22;;;1.30;;
50789;SDS011;37287;47.554;7.844;2024-03-06T00:28:05;1.60;;;1.45;;
50789;SDS011;37287;47.554;7.844;2024-03-06T00:30:32;1.70;;;1.00;;
50789;SDS011;37287;47.554;7.844;2024-03-06T00:32:59;4.28;;;1.48;;
50789;SDS011;37287;47.554;7.844;2024-03-06T00:35:25;3.85;;;1.40;;
50789;SDS011;37287;47.554;7.844;2024-03-06T00:37:52;2.53;;;1.40;;
50789;SDS011;37287;47.554;7.844;2024-03-06T00:40:20;1.30;;;1.15;;
50789;SDS011;37287;47.554;7.844;2024-03-06T00:42:46;1.75;;;1.35;;
50789;SDS011;37287;47.554;7.844;2024-03-06T00:45:13;2.60;;;1.40;;
50789;SDS011;37287;47.554;7.844;2024-03-06T00:47:39;1.98;;;1.30;;
50789;SDS011;37287;47.554;7.844;2024-03-06T00:50:06;3.10;;;1.50;;
50789;SDS011;37287;47.554;7.844;2024-03-06T00:52:34;2.42;;;1.20;;
50789;SDS011;37287;47.554;7.844;2024-03-06T00:55:00;2.67;;;1.48;;
50789;SDS011;37287;47.554;7.844;2024-03-06T00:57:27;1.10;;;1.00;;
50789;SDS011;37287;47.554;7.844;2024-03-06T00:59:54;2.22;;;1.35;;
50789;SDS011;37287;47.554;7.844;2024-03-06T01:02:21;2.90;;;1.35;;
50789;SDS011;37287;47.554;7.844;2024-03-06T01:04:48;4.97;;;1.77;;
50789;SDS011;37287;47.554;7.844;2024-03-06T01:07:14;2.75;;;1.45;;
50789;SDS011;37287;47.554;7.844;2024-03-06T01:09:41;2.42;;;1.50;;
50789;SDS011;37287;47.554;7.844;2024-03-06T01:12:07;1.92;;;1.60;;
50789;SDS011;37287;47.554;7.844;2024-03-06T01:14:34;2.45;;;1.80;;
50789;SDS011;37287;47.554;7.844;2024-03-06T01:17:05;6.80;;;2.17;;
50789;SDS011;37287;47.554;7.844;2024-03-06T01:19:32;1.80;;;1.42;;
50789;SDS011;37287;47.554;7.844;2024-03-06T01:21:59;2.15;;;1.60;;
50789;SDS011;37287;47.554;7.844;2024-03-06T01:24:26;1.70;;;1.40;;
50789;SDS011;37287;47.554;7.844;2024-03-06T01:26:52;2.10;;;1.38;;
50789;SDS011;37287;47.554;7.844;2024-03-06T01:29:19;2.70;;;1.42;;
50789;SDS011;37287;47.554;7.844;2024-03-06T01:31:46;2.10;;;1.52;;
50789;SDS011;37287;47.554;7.844;2024-03-06T01:34:13;2.67;;;1.77;;
50789;SDS011;37287;47.554;7.844;2024-03-06T01:36:40;2.15;;;1.50;;
50789;SDS011;37287;47.554;7.844;2024-03-06T01:39:06;1.35;;;1.25;;
50789;SDS011;37287;47.554;7.844;2024-03-06T01:41:33;1.95;;;1.50;;
50789;SDS011;37287;47.554;7.844;2024-03-06T01:44:00;1.77;;;1.63;;
50789;SDS011;37287;47.554;7.844;2024-03-06T01:46:27;2.58;;;1.90;;
50789;SDS011;37287;47.554;7.844;2024-03-06T01:48:54;5.55;;;1.63;;
50789;SDS011;37287;47.554;7.844;2024-03-06T01:51:23;1.98;;;1.67;;
50789;SDS011;37287;47.554;7.844;2024-03-06T01:53:50;2.10;;;1.80;;
50789;SDS011;37287;47.554;7.844;2024-03-06T01:56:17;2.28;;;1.70;;
50789;SDS011;37287;47.554;7.844;2024-03-06T01:58:45;1.75;;;1.63;;
50789;SDS011;37287;47.554;7.844;2024-03-06T02:01:13;3.50;;;2.05;;
50789;SDS011;37287;47.554;7.844;2024-03-06T02:03:40;3.25;;;2.08;;
50789;SDS011;37287;47.554;7.844;2024-03-06T02:06:08;3.83;;;2.17;;
50789;SDS011;37287;47.554;7.844;2024-03-06T02:08:36;4.47;;;2.25;;
50789;SDS011;37287;47.554;7.844;2024-03-06T02:11:03;2.42;;;1.73;;
50789;SDS011;37287;47.554;7.844;2024-03-06T02:13:30;4.68;;;2.33;;
50789;SDS011;37287;47.554;7.844;2024-03-06T02:15:57;2.97;;;2.20;;
50789;SDS011;37287;47.554;7.844;2024-03-06T02:18:24;3.38;;;2.10;;
50789;SDS011;37287;47.554;7.844;2024-03-06T02:20:51;2.63;;;1.80;;
50789;SDS011;37287;47.554;7.844;2024-03-06T02:23:18;2.85;;;1.98;;
50789;SDS011;37287;47.554;7.844;2024-03-06T02:25:46;2.17;;;1.67;;
50789;SDS011;37287;47.554;7.844;2024-03-06T02:28:14;1.55;;;1.45;;
50789;SDS011;37287;47.554;7.844;2024-03-06T02:30:40;2.92;;;1.67;;
50789;SDS011;37287;47.554;7.844;2024-03-06T02:33:07;2.90;;;1.80;;
50789;SDS011;37287;47.554;7.844;2024-03-06T02:35:34;3.70;;;1.70;;
50789;SDS011;37287;47.554;7.844;2024-03-06T02:38:03;1.73;;;1.48;;
50789;SDS011;37287;47.554;7.844;2024-03-06T02:40:33;3.20;;;1.50;;
50789;SDS011;37287;47.554;7.844;2024-03-06T02:43:00;2.30;;;1.73;;
50789;SDS011;37287;47.554;7.844;2024-03-06T02:45:26;1.50;;;1.40;;
50789;SDS011;37287;47.554;7.844;2024-03-06T02:47:53;2.28;;;1.75;;
50789;SDS011;37287;47.554;7.844;2024-03-06T02:50:20;2.03;;;1.60;;
50789;SDS011;37287;47.554;7.844;2024-03-06T02:52:47;1.92;;;1.67;;
50789;SDS011;37287;47.554;7.844;2024-03-06T02:55:14;2.80;;;1.58;;
50789;SDS011;37287;47.554;7.844;2024-03-06T02:57:41;2.17;;;1.60;;
50789;SDS011;37287;47.554;7.844;2024-03-06T03:00:08;2.45;;;1.48;;
50789;SDS011;37287;47.554;7.844;2024-03-06T03:02:39;1.70;;;1.60;;
50789;SDS011;37287;47.554;7.844;2024-03-06T03:05:06;5.70;;;1.92;;
50789;SDS011;37287;47.554;7.844;2024-03-06T03:07:33;2.40;;;1.70;;
50789;SDS011;37287;47.554;7.844;2024-03-06T03:10:00;2.88;;;1.73;;
50789;SDS011;37287;47.554;7.844;2024-03-06T03:12:27;4.50;;;2.25;;
50789;SDS011;37287;47.554;7.844;2024-03-06T03:14:53;1.92;;;1.83;;
50789;SDS011;37287;47.554;7.844;2024-03-06T03:17:20;3.20;;;2.40;;
50789;SDS011;37287;47.554;7.844;2024-03-06T03:19:47;2.05;;;1.85;;
50789;SDS011;37287;47.554;7.844;2024-03-06T03:22:14;2.88;;;2.30;;
50789;SDS011;37287;47.554;7.844;2024-03-06T03:24:43;3.88;;;2.28;;
50789;SDS011;37287;47.554;7.844;2024-03-06T03:27:10;3.75;;;2.40;;
50789;SDS011;37287;47.554;7.844;2024-03-06T03:29:37;2.55;;;2.00;;
50789;SDS011;37287;47.554;7.844;2024-03-06T03:32:04;2.95;;;2.22;;
50789;SDS011;37287;47.554;7.844;2024-03-06T03:34:31;2.50;;;2.20;;
50789;SDS011;37287;47.554;7.844;2024-03-06T03:36:59;2.83;;;2.10;;
50789;SDS011;37287;47.554;7.844;2024-03-06T03:39:25;3.25;;;2.50;;
50789;SDS011;37287;47.554;7.844;2024-03-06T03:41:53;4.15;;;2.53;;
50789;SDS011;37287;47.554;7.844;2024-03-06T03:44:20;3.35;;;2.40;;
50789;SDS011;37287;47.554;7.844;2024-03-06T03:47:11;7.45;;;2.85;;
50789;SDS011;37287;47.554;7.844;2024-03-06T03:49:38;2.42;;;2.22;;
50789;SDS011;37287;47.554;7.844;2024-03-06T03:52:05;5.03;;;2.13;;
50789;SDS011;37287;47.554;7.844;2024-03-06T03:54:33;3.95;;;2.50;;
50789;SDS011;37287;47.554;7.844;2024-03-06T03:56:59;3.72;;;2.17;;
50789;SDS011;37287;47.554;7.844;2024-03-06T03:59:26;3.58;;;2.50;;
50789;SDS011;37287;47.554;7.844;2024-03-06T04:01:53;2.92;;;2.50;;
50789;SDS011;37287;47.554;7.844;2024-03-06T04:04:19;2.42;;;2.22;;
50789;SDS011;37287;47.554;7.844;2024-03-06T04:06:47;2.53;;;2.08;;
50789;SDS011;37287;47.554;7.844;2024-03-06T04:09:14;4.03;;;2.55;;
50789;SDS011;37287;47.554;7.844;2024-03-06T04:11:41;3.25;;;2.08;;
50789;SDS011;37287;47.554;7.844;2024-03-06T04:14:08;2.88;;;2.10;;
50789;SDS011;37287;47.554;7.844;2024-03-06T04:16:35;4.07;;;1.98;;
50789;SDS011;37287;47.554;7.844;2024-03-06T04:19:02;2.38;;;2.17;;
50789;SDS011;37287;47.554;7.844;2024-03-06T04:21:30;3.60;;;2.75;;
50789;SDS011;37287;47.554;7.844;2024-03-06T04:23:56;2.85;;;2.42;;
50789;SDS011;37287;47.554;7.844;2024-03-06T04:26:24;4.13;;;2.60;;
50789;SDS011;37287;47.554;7.844;2024-03-06T04:28:51;3.70;;;2.28;;
50789;SDS011;37287;47.554;7.844;2024-03-06T04:31:18;3.08;;;2.38;;
50789;SDS011;37287;47.554;7.844;2024-03-06T04:33:50;3.15;;;2.20;;
50789;SDS011;37287;47.554;7.844;2024-03-06T04:36:17;2.38;;;2.17;;
50789;SDS011;37287;47.554;7.844;2024-03-06T04:38:43;2.60;;;2.40;;
50789;SDS011;37287;47.554;7.844;2024-03-06T04:41:10;3.17;;;2.40;;
50789;SDS011;37287;47.554;7.844;2024-03-06T04:43:37;3.85;;;2.22;;
50789;SDS011;37287;47.554;7.844;2024-03-06T04:46:04;3.33;;;2.88;;
50789;SDS011;37287;47.554;7.844;2024-03-06T04:48:31;3.03;;;2.53;;
50789;SDS011;37287;47.554;7.844;2024-03-06T04:50:58;3.42;;;2.92;;
50789;SDS011;37287;47.554;7.844;2024-03-06T04:53:24;3.58;;;3.00;;
50789;SDS011;37287;47.554;7.844;2024-03-06T04:55:51;4.43;;;3.10;;
50789;SDS011;37287;47.554;7.844;2024-03-06T04:58:18;4.13;;;3.20;;
50789;SDS011;37287;47.554;7.844;2024-03-06T05:00:46;5.18;;;3.38;;
50789;SDS011;37287;47.554;7.844;2024-03-06T05:03:13;5.10;;;3.80;;
50789;SDS011;37287;47.554;7.844;2024-03-06T05:05:58;3.78;;;3.47;;
50789;SDS011;37287;47.554;7.844;2024-03-06T05:08:42;5.88;;;3.75;;
50789;SDS011;37287;47.554;7.844;2024-03-06T05:11:26;3.97;;;3.50;;
50789;SDS011;37287;47.554;7.844;2024-03-06T05:14:11;4.28;;;3.47;;
50789;SDS011;37287;47.554;7.844;2024-03-06T05:16:55;4.55;;;3.25;;
50789;SDS011;37287;47.554;7.844;2024-03-06T05:19:39;4.07;;;3.67;;
50789;SDS011;37287;47.554;7.844;2024-03-06T05:22:23;4.38;;;3.08;;
50789;SDS011;37287;47.554;7.844;2024-03-06T05:25:07;4.13;;;3.20;;
50789;SDS011;37287;47.554;7.844;2024-03-06T05:27:51;5.50;;;3.45;;
50789;SDS011;37287;47.554;7.844;2024-03-06T05:30:35;3.85;;;3.25;;
50789;SDS011;37287;47.554;7.844;2024-03-06T05:33:20;5.03;;;3.80;;
50789;SDS011;37287;47.554;7.844;2024-03-06T05:36:05;4.80;;;3.17;;
50789;SDS011;37287;47.554;7.844;2024-03-06T05:38:49;3.45;;;3.15;;
50789;SDS011;37287;47.554;7.844;2024-03-06T05:41:33;4.95;;;3.67;;
50789;SDS011;37287;47.554;7.844;2024-03-06T05:44:18;3.90;;;3.40;;
50789;SDS011;37287;47.554;7.844;2024-03-06T05:47:02;4.57;;;3.50;;
50789;SDS011;37287;47.554;7.844;2024-03-06T05:49:46;5.50;;;3.72;;
50789;SDS011;37287;47.554;7.844;2024-03-06T05:52:31;9.77;;;4.25;;
50789;SDS011;37287;47.554;7.844;2024-03-06T05:55:16;6.60;;;4.10;;
50789;SDS011;37287;47.554;7.844;2024-03-06T05:58:00;6.32;;;4.05;;
50789;SDS011;37287;47.554;7.844;2024-03-06T06:00:40;6.90;;;4.65;;
50789;SDS011;37287;47.554;7.844;2024-03-06T06:03:08;5.63;;;4.32;;
50789;SDS011;37287;47.554;7.844;2024-03-06T06:05:38;5.03;;;4.00;;
50789;SDS011;37287;47.554;7.844;2024-03-06T06:08:06;5.40;;;3.85;;
50789;SDS011;37287;47.554;7.844;2024-03-06T06:10:33;5.20;;;3.63;;
50789;SDS011;37287;47.554;7.844;2024-03-06T06:13:01;5.40;;;4.10;;
50789;SDS011;37287;47.554;7.844;2024-03-06T06:15:31;10.68;;;3.78;;
50789;SDS011;37287;47.554;7.844;2024-03-06T06:17:58;6.95;;;4.20;;
50789;SDS011;37287;47.554;7.844;2024-03-06T06:20:25;6.18;;;3.95;;
50789;SDS011;37287;47.554;7.844;2024-03-06T06:22:52;4.50;;;4.10;;
50789;SDS011;37287;47.554;7.844;2024-03-06T06:25:19;4.30;;;3.90;;
50789;SDS011;37287;47.554;7.844;2024-03-06T06:27:46;4.63;;;3.88;;
50789;SDS011;37287;47.554;7.844;2024-03-06T06:30:16;7.07;;;4.25;;
50789;SDS011;37287;47.554;7.844;2024-03-06T06:32:43;6.53;;;5.15;;
50789;SDS011;37287;47.554;7.844;2024-03-06T06:35:10;7.90;;;5.03;;
50789;SDS011;37287;47.554;7.844;2024-03-06T06:37:40;7.05;;;4.90;;
50789;SDS011;37287;47.554;7.844;2024-03-06T06:40:07;6.18;;;4.57;;
50789;SDS011;37287;47.554;7.844;2024-03-06T06:42:34;7.20;;;4.88;;
50789;SDS011;37287;47.554;7.844;2024-03-06T06:45:02;7.28;;;4.75;;
50789;SDS011;37287;47.554;7.844;2024-03-06T06:47:29;5.55;;;4.88;;
50789;SDS011;37287;47.554;7.844;2024-03-06T06:49:57;5.97;;;4.53;;
50789;SDS011;37287;47.554;7.844;2024-03-06T06:52:23;6.22;;;4.85;;
50789;SDS011;37287;47.554;7.844;2024-03-06T06:54:54;6.63;;;4.80;;
50789;SDS011;37287;47.554;7.844;2024-03-06T06:57:20;5.35;;;4.50;;
50789;SDS011;37287;47.554;7.844;2024-03-06T06:59:47;6.85;;;4.10;;
50789;SDS011;37287;47.554;7.844;2024-03-06T07:02:14;4.18;;;3.53;;
50789;SDS011;37287;47.554;7.844;2024-03-06T07:04:40;7.78;;;4.13;;
50789;SDS011;37287;47.554;7.844;2024-03-06T07:07:07;4.97;;;4.40;;
50789;SDS011;37287;47.554;7.844;2024-03-06T07:09:34;5.90;;;4.30;;
50789;SDS011;37287;47.554;7.844;2024-03-06T07:12:01;5.40;;;4.05;;
50789;SDS011;37287;47.554;7.844;2024-03-06T07:14:29;6.90;;;4.80;;
50789;SDS011;37287;47.554;7.844;2024-03-06T07:16:56;5.07;;;4.22;;
50789;SDS011;37287;47.554;7.844;2024-03-06T07:19:22;7.32;;;5.47;;
50789;SDS011;37287;47.554;7.844;2024-03-06T07:21:49;5.30;;;4.50;;
50789;SDS011;37287;47.554;7.844;2024-03-06T07:24:16;5.63;;;5.05;;
50789;SDS011;37287;47.554;7.844;2024-03-06T07:26:43;5.28;;;4.75;;
50789;SDS011;37287;47.554;7.844;2024-03-06T07:29:10;6.32;;;4.45;;
50789;SDS011;37287;47.554;7.844;2024-03-06T07:31:41;5.40;;;4.63;;
50789;SDS011;37287;47.554;7.844;2024-03-06T07:34:08;8.77;;;4.35;;
50789;SDS011;37287;47.554;7.844;2024-03-06T07:36:35;5.43;;;4.07;;
50789;SDS011;37287;47.554;7.844;2024-03-06T07:39:02;4.57;;;3.90;;
50789;SDS011;37287;47.554;7.844;2024-03-06T07:41:30;5.13;;;3.67;;
50789;SDS011;37287;47.554;7.844;2024-03-06T07:43:59;4.63;;;3.67;;
50789;SDS011;37287;47.554;7.844;2024-03-06T07:46:26;3.80;;;3.50;;
50789;SDS011;37287;47.554;7.844;2024-03-06T07:48:53;4.15;;;3.63;;
50789;SDS011;37287;47.554;7.844;2024-03-06T07:51:20;5.60;;;3.70;;
50789;SDS011;37287;47.554;7.844;2024-03-06T07:53:46;4.32;;;3.38;;
50789;SDS011;37287;47.554;7.844;2024-03-06T07:56:15;4.93;;;4.28;;
50789;SDS011;37287;47.554;7.844;2024-03-06T07:58:43;4.22;;;3.80;;
50789;SDS011;37287;47.554;7.844;2024-03-06T08:01:09;4.30;;;3.90;;
50789;SDS011;37287;47.554;7.844;2024-03-06T08:03:38;5.68;;;3.72;;
50789;SDS011;37287;47.554;7.844;2024-03-06T08:06:06;5.18;;;3.50;;
50789;SDS011;37287;47.554;7.844;2024-03-06T08:08:32;5.03;;;4.28;;
50789;SDS011;37287;47.554;7.844;2024-03-06T08:10:59;5.43;;;3.72;;
50789;SDS011;37287;47.554;7.844;2024-03-06T08:13:26;5.47;;;4.38;;
50789;SDS011;37287;47.554;7.844;2024-03-06T08:15:53;4.25;;;3.80;;
50789;SDS011;37287;47.554;7.844;2024-03-06T08:18:20;5.07;;;3.97;;
50789;SDS011;37287;47.554;7.844;2024-03-06T08:20:47;6.78;;;4.28;;
50789;SDS011;37287;47.554;7.844;2024-03-06T08:23:14;6.57;;;3.92;;
50789;SDS011;37287;47.554;7.844;2024-03-06T08:25:40;4.75;;;3.80;;
50789;SDS011;37287;47.554;7.844;2024-03-06T08:28:07;5.03;;;3.70;;
50789;SDS011;37287;47.554;7.844;2024-03-06T08:30:36;4.95;;;4.45;;
50789;SDS011;37287;47.554;7.844;2024-03-06T08:33:03;4.53;;;3.90;;
50789;SDS011;37287;47.554;7.844;2024-03-06T08:35:30;5.38;;;4.45;;
50789;SDS011;37287;47.554;7.844;2024-03-06T08:37:56;6.88;;;3.92;;
50789;SDS011;37287;47.554;7.844;2024-03-06T08:40:23;5.97;;;4.57;;
50789;SDS011;37287;47.554;7.844;2024-03-06T08:42:52;6.00;;;4.55;;
50789;SDS011;37287;47.554;7.844;2024-03-06T08:45:19;5.30;;;4.53;;
50789;SDS011;37287;47.554;7.844;2024-03-06T08:47:46;5.85;;;4.47;;
50789;SDS011;37287;47.554;7.844;2024-03-06T08:50:15;5.47;;;4.90;;
50789;SDS011;37287;47.554;7.844;2024-03-06T08:52:42;6.65;;;4.80;;
50789;SDS011;37287;47.554;7.844;2024-03-06T08:55:09;6.10;;;5.15;;
50789;SDS011;37287;47.554;7.844;2024-03-06T08:57:36;6.72;;;4.70;;
50789;SDS011;37287;47.554;7.844;2024-03-06T09:00:04;7.00;;;4.82;;
50789;SDS011;37287;47.554;7.844;2024-03-06T09:02:37;7.03;;;5.30;;
50789;SDS011;37287;47.554;7.844;2024-03-06T09:05:05;9.00;;;5.20;;
50789;SDS011;37287;47.554;7.844;2024-03-06T09:07:33;9.05;;;5.53;;
50789;SDS011;37287;47.554;7.844;2024-03-06T09:10:04;7.45;;;5.82;;
50789;SDS011;37287;47.554;7.844;2024-03-06T09:12:34;7.55;;;5.05;;
50789;SDS011;37287;47.554;7.844;2024-03-06T09:15:02;10.35;;;5.90;;
50789;SDS011;37287;47.554;7.844;2024-03-06T09:17:29;7.00;;;5.38;;
50789;SDS011;37287;47.554;7.844;2024-03-06T09:19:56;7.65;;;4.57;;
50789;SDS011;37287;47.554;7.844;2024-03-06T09:22:35;8.20;;;5.10;;
50789;SDS011;37287;47.554;7.844;2024-03-06T09:25:06;7.28;;;5.45;;
50789;SDS011;37287;47.554;7.844;2024-03-06T09:27:33;6.63;;;4.65;;
50789;SDS011;37287;47.554;7.844;2024-03-06T09:30:00;5.18;;;4.18;;
50789;SDS011;37287;47.554;7.844;2024-03-06T09:32:27;7.68;;;5.28;;
50789;SDS011;37287;47.554;7.844;2024-03-06T09:34:54;8.65;;;5.63;;
50789;SDS011;37287;47.554;7.844;2024-03-06T09:37:21;5.57;;;4.82;;
50789;SDS011;37287;47.554;7.844;2024-03-06T09:39:48;7.00;;;5.25;;
50789;SDS011;37287;47.554;7.844;2024-03-06T09:42:15;8.13;;;5.10;;
50789;SDS011;37287;47.554;7.844;2024-03-06T09:44:42;7.07;;;5.10;;
50789;SDS011;37287;47.554;7.844;2024-03-06T09:47:10;4.95;;;4.43;;
50789;SDS011;37287;47.554;7.844;2024-03-06T09:49:41;7.53;;;4.30;;
50789;SDS011;37287;47.554;7.844;2024-03-06T09:52:09;5.53;;;3.85;;
50789;SDS011;37287;47.554;7.844;2024-03-06T09:54:37;4.90;;;4.20;;
50789;SDS011;37287;47.554;7.844;2024-03-06T09:57:05;4.88;;;4.00;;
50789;SDS011;37287;47.554;7.844;2024-03-06T09:59:32;6.50;;;4.40;;
50789;SDS011;37287;47.554;7.844;2024-03-06T10:02:00;6.60;;;3.80;;
50789;SDS011;37287;47.554;7.844;2024-03-06T10:04:32;7.63;;;3.88;;
50789;SDS011;37287;47.554;7.844;2024-03-06T10:07:00;5.65;;;3.78;;
50789;SDS011;37287;47.554;7.844;2024-03-06T10:09:29;7.03;;;4.50;;
50789;SDS011;37287;47.554;7.844;2024-03-06T10:11:57;6.45;;;4.35;;
50789;SDS011;37287;47.554;7.844;2024-03-06T10:14:28;7.80;;;4.63;;
50789;SDS011;37287;47.554;7.844;2024-03-06T10:16:59;5.00;;;4.00;;
50789;SDS011;37287;47.554;7.844;2024-03-06T10:19:27;6.13;;;3.88;;
50789;SDS011;37287;47.554;7.844;2024-03-06T10:21:55;5.32;;;3.38;;
50789;SDS011;37287;47.554;7.844;2024-03-06T10:24:24;6.55;;;4.50;;
50789;SDS011;37287;47.554;7.844;2024-03-06T10:26:55;5.35;;;4.03;;
50789;SDS011;37287;47.554;7.844;2024-03-06T10:29:25;4.68;;;4.22;;
50789;SDS011;37287;47.554;7.844;2024-03-06T10:31:54;4.75;;;3.80;;
50789;SDS011;37287;47.554;7.844;2024-03-06T10:34:24;5.65;;;4.30;;
50789;SDS011;37287;47.554;7.844;2024-03-06T10:36:55;7.05;;;4.30;;
50789;SDS011;37287;47.554;7.844;2024-03-06T10:39:24;5.70;;;4.25;;
50789;SDS011;37287;47.554;7.844;2024-03-06T10:41:54;6.22;;;4.20;;
50789;SDS011;37287;47.554;7.844;2024-03-06T10:44:25;4.20;;;3.63;;
50789;SDS011;37287;47.554;7.844;2024-03-06T10:46:59;5.40;;;4.05;;
50789;SDS011;37287;47.554;7.844;2024-03-06T10:49:28;4.97;;;3.83;;
50789;SDS011;37287;47.554;7.844;2024-03-06T10:51:59;4.43;;;3.67;;
50789;SDS011;37287;47.554;7.844;2024-03-06T10:54:27;5.70;;;4.10;;
50789;SDS011;37287;47.554;7.844;2024-03-06T10:56:58;6.32;;;4.60;;
50789;SDS011;37287;47.554;7.844;2024-03-06T10:59:26;6.00;;;4.30;;
50789;SDS011;37287;47.554;7.844;2024-03-06T11:01:57;6.25;;;4.80;;
50789;SDS011;37287;47.554;7.844;2024-03-06T11:04:30;4.68;;;3.58;;
50789;SDS011;37287;47.554;7.844;2024-03-06T11:07:01;6.05;;;4.05;;
50789;SDS011;37287;47.554;7.844;2024-03-06T11:09:33;4.90;;;3.47;;
50789;SDS011;37287;47.554;7.844;2024-03-06T11:12:05;4.63;;;3.90;;
50789;SDS011;37287;47.554;7.844;2024-03-06T11:14:36;4.55;;;3.70;;
50789;SDS011;37287;47.554;7.844;2024-03-06T11:17:09;4.18;;;3.50;;
50789;SDS011;37287;47.554;7.844;2024-03-06T11:30:57;5.22;;;4.47;;
50789;SDS011;37287;47.554;7.844;2024-03-06T11:33:28;4.43;;;4.00;;
50789;SDS011;37287;47.554;7.844;2024-03-06T11:36:16;6.28;;;4.40;;
50789;SDS011;37287;47.554;7.844;2024-03-06T11:38:53;7.72;;;4.68;;
50789;SDS011;37287;47.554;7.844;2024-03-06T11:41:27;5.60;;;4.10;;
50789;SDS011;37287;47.554;7.844;2024-03-06T11:43:56;4.68;;;4.20;;
50789;SDS011;37287;47.554;7.844;2024-03-06T11:49:17;6.50;;;4.50;;
50789;SDS011;37287;47.554;7.844;2024-03-06T11:51:47;3.90;;;3.50;;
50789;SDS011;37287;47.554;7.844;2024-03-06T11:54:15;5.97;;;3.50;;
50789;SDS011;37287;47.554;7.844;2024-03-06T11:56:44;5.22;;;3.30;;
50789;SDS011;37287;47.554;7.844;2024-03-06T11:59:13;5.95;;;3.72;;
50789;SDS011;37287;47.554;7.844;2024-03-06T12:01:41;4.35;;;3.00;;
50789;SDS011;37287;47.554;7.844;2024-03-06T12:04:08;4.65;;;3.90;;
50789;SDS011;37287;47.554;7.844;2024-03-06T12:06:35;4.47;;;3.70;;
50789;SDS011;37287;47.554;7.844;2024-03-06T12:09:03;3.40;;;3.00;;
50789;SDS011;37287;47.554;7.844;2024-03-06T12:11:30;5.93;;;2.90;;
50789;SDS011;37287;47.554;7.844;2024-03-06T12:13:57;3.95;;;3.17;;
50789;SDS011;37287;47.554;7.844;2024-03-06T12:16:25;3.33;;;3.00;;
50789;SDS011;37287;47.554;7.844;2024-03-06T12:18:57;3.13;;;2.83;;
50789;SDS011;37287;47.554;7.844;2024-03-06T12:21:30;3.03;;;2.80;;
50789;SDS011;37287;47.554;7.844;2024-03-06T12:24:02;3.92;;;2.63;;
50789;SDS011;37287;47.554;7.844;2024-03-06T12:26:32;4.03;;;2.63;;
50789;SDS011;37287;47.554;7.844;2024-03-06T12:29:08;2.80;;;2.47;;
50789;SDS011;37287;47.554;7.844;2024-03-06T12:31:37;5.03;;;3.55;;
50789;SDS011;37287;47.554;7.844;2024-03-06T12:34:05;6.28;;;2.90;;
50789;SDS011;37287;47.554;7.844;2024-03-06T12:36:35;6.47;;;2.90;;
50789;SDS011;37287;47.554;7.844;2024-03-06T12:39:03;4.50;;;3.50;;
50789;SDS011;37287;47.554;7.844;2024-03-06T12:41:30;3.97;;;2.90;;
50789;SDS011;37287;47.554;7.844;2024-03-06T12:43:56;6.07;;;2.97;;
50789;SDS011;37287;47.554;7.844;2024-03-06T12:46:23;3.28;;;2.90;;
50789;SDS011;37287;47.554;7.844;2024-03-06T12:48:52;3.17;;;2.70;;
50789;SDS011;37287;47.554;7.844;2024-03-06T12:51:19;2.83;;;2.50;;
50789;SDS011;37287;47.554;7.844;2024-03-06T12:53:46;3.00;;;2.65;;
50789;SDS011;37287;47.554;7.844;2024-03-06T12:56:14;2.72;;;2.53;;
50789;SDS011;37287;47.554;7.844;2024-03-06T12:58:41;3.15;;;2.40;;
50789;SDS011;37287;47.554;7.844;2024-03-06T13:01:07;2.10;;;1.80;;
50789;SDS011;37287;47.554;7.844;2024-03-06T13:03:34;4.57;;;2.78;;
50789;SDS011;37287;47.554;7.844;2024-03-06T13:06:01;2.67;;;2.47;;
50789;SDS011;37287;47.554;7.844;2024-03-06T13:08:28;3.25;;;2.20;;
50789;SDS011;37287;47.554;7.844;2024-03-06T13:10:54;3.78;;;2.42;;
50789;SDS011;37287;47.554;7.844;2024-03-06T13:13:22;2.53;;;2.33;;
50789;SDS011;37287;47.554;7.844;2024-03-06T13:15:52;5.15;;;2.80;;
50789;SDS011;37287;47.554;7.844;2024-03-06T13:18:19;2.67;;;2.47;;
50789;SDS011;37287;47.554;7.844;2024-03-06T13:20:45;3.75;;;2.83;;
50789;SDS011;37287;47.554;7.844;2024-03-06T13:23:13;2.95;;;2.70;;
50789;SDS011;37287;47.554;7.844;2024-03-06T13:25:39;3.33;;;2.63;;
50789;SDS011;37287;47.554;7.844;2024-03-06T13:28:06;3.42;;;2.60;;
50789;SDS011;37287;47.554;7.844;2024-03-06T13:30:33;3.00;;;2.75;;
50789;SDS011;37287;47.554;7.844;2024-03-06T13:33:00;2.58;;;2.38;;
50789;SDS011;37287;47.554;7.844;2024-03-06T13:35:26;4.10;;;2.92;;
50789;SDS011;37287;47.554;7.844;2024-03-06T13:37:55;3.17;;;2.80;;
50789;SDS011;37287;47.554;7.844;2024-03-06T13:40:22;5.07;;;2.92;;
50789;SDS011;37287;47.554;7.844;2024-03-06T13:42:48;3.40;;;2.60;;
50789;SDS011;37287;47.554;7.844;2024-03-06T13:45:15;3.53;;;2.70;;
50789;SDS011;37287;47.554;7.844;2024-03-06T13:47:42;4.53;;;3.10;;
50789;SDS011;37287;47.554;7.844;2024-03-06T13:50:13;4.32;;;3.30;;
50789;SDS011;37287;47.554;7.844;2024-03-06T13:52:41;3.20;;;2.75;;
50789;SDS011;37287;47.554;7.844;2024-03-06T13:55:08;4.18;;;2.80;;
50789;SDS011;37287;47.554;7.844;2024-03-06T13:57:36;4.05;;;3.08;;
50789;SDS011;37287;47.554;7.844;2024-03-06T14:00:07;3.45;;;3.15;;
50789;SDS011;37287;47.554;7.844;2024-03-06T14:02:44;4.10;;;2.60;;
50789;SDS011;37287;47.554;7.844;2024-03-06T14:05:14;3.47;;;3.17;;
50789;SDS011;37287;47.554;7.844;2024-03-06T14:07:42;4.18;;;3.20;;
50789;SDS011;37287;47.554;7.844;2024-03-06T14:10:08;5.03;;;3.28;;
50789;SDS011;37287;47.554;7.844;2024-03-06T14:12:37;3.38;;;2.75;;
50789;SDS011;37287;47.554;7.844;2024-03-06T14:15:05;3.55;;;3.00;;
50789;SDS011;37287;47.554;7.844;2024-03-06T14:17:35;5.22;;;3.25;;
50789;SDS011;37287;47.554;7.844;2024-03-06T14:20:02;4.60;;;3.45;;
50789;SDS011;37287;47.554;7.844;2024-03-06T14:22:29;4.15;;;3.70;;
50789;SDS011;37287;47.554;7.844;2024-03-06T14:24:56;5.15;;;3.60;;
50789;SDS011;37287;47.554;7.844;2024-03-06T14:27:23;6.40;;;4.03;;
50789;SDS011;37287;47.554;7.844;2024-03-06T14:29:50;6.18;;;3.28;;
50789;SDS011;37287;47.554;7.844;2024-03-06T14:32:18;4.38;;;2.90;;
50789;SDS011;37287;47.554;7.844;2024-03-06T14:34:45;3.78;;;2.78;;
50789;SDS011;37287;47.554;7.844;2024-03-06T14:37:12;2.97;;;2.45;;
50789;SDS011;37287;47.554;7.844;2024-03-06T14:39:39;3.00;;;2.70;;
50789;SDS011;37287;47.554;7.844;2024-03-06T14:42:06;3.00;;;2.80;;
50789;SDS011;37287;47.554;7.844;2024-03-06T14:44:33;2.95;;;2.70;;
50789;SDS011;37287;47.554;7.844;2024-03-06T14:47:00;2.58;;;2.38;;
50789;SDS011;37287;47.554;7.844;2024-03-06T14:49:27;4.25;;;2.75;;
50789;SDS011;37287;47.554;7.844;2024-03-06T14:51:53;2.75;;;2.55;;
50789;SDS011;37287;47.554;7.844;2024-03-06T14:54:21;3.00;;;2.58;;
50789;SDS011;37287;47.554;7.844;2024-03-06T14:56:52;4.72;;;2.70;;
50789;SDS011;37287;47.554;7.844;2024-03-06T14:59:20;3.75;;;2.67;;
50789;SDS011;37287;47.554;7.844;2024-03-06T15:01:48;5.68;;;2.42;;
50789;SDS011;37287;47.554;7.844;2024-03-06T15:04:16;3.92;;;3.03;;
50789;SDS011;37287;47.554;7.844;2024-03-06T15:06:43;5.65;;;2.92;;
50789;SDS011;37287;47.554;7.844;2024-03-06T15:09:12;3.17;;;2.67;;
50789;SDS011;37287;47.554;7.844;2024-03-06T15:11:42;3.22;;;2.35;;